Time;durP1;ratioP1;P1;durP2;ratioP2;P2;SDS_P1;SDS_P2;PMS_P1;PMS_P2;Temp;Humidity;BMP_temperature;BMP_pressure;BME280_temperature;BME280_humidity;BME280_pressure;Samples;Min_cycle;Max_cycle;Signal;HPM_P1;HPM_P2
2022/03/24 00:00:19;;;;;;;109.45;38.72;;;;;;;4.46;51.54;100407.50;8395303;28;20066;-72
2022/03/24 00:04:40;;;;;;;111.18;44.35;;;;;;;4.74;50.75;100403.22;8395315;28;20070;-72
2022/03/24 00:08:41;;;;;;;122.80;41.40;;;;;;;4.87;50.47;100405.59;8395398;28;20074;-72
2022/03/24 00:12:42;;;;;;;113.82;42.40;;;;;;;5.05;49.65;100405.41;8395921;28;20446;-71
2022/03/24 00:16:43;;;;;;;108.35;41.55;;;;;;;5.26;49.00;100404.72;8395043;28;20087;-72
2022/03/24 00:20:44;;;;;;;110.82;42.38;;;;;;;5.42;48.07;100406.59;8396210;28;20275;-72
2022/03/24 00:24:45;;;;;;;110.13;41.25;;;;;;;5.45;47.84;100394.56;8395331;28;20449;-71
2022/03/24 00:28:46;;;;;;;99.15;38.95;;;;;;;5.44;47.63;100393.78;8395099;28;20044;-72
2022/03/24 00:32:47;;;;;;;112.50;41.40;;;;;;;5.51;47.34;100398.94;8395038;28;20353;-72
2022/03/24 00:36:48;;;;;;;108.45;40.90;;;;;;;5.49;47.50;100396.53;8392382;28;20151;-72
2022/03/24 00:40:51;;;;;;;109.72;39.75;;;;;;;5.46;47.20;100397.00;8395086;28;20052;-71
2022/03/24 00:44:52;;;;;;;105.68;40.72;;;;;;;5.43;47.21;100408.22;8395022;28;20052;-71
2022/03/24 00:48:53;;;;;;;105.20;40.05;;;;;;;5.41;47.27;100399.59;8394941;28;20046;-72
2022/03/24 00:52:54;;;;;;;108.72;42.90;;;;;;;5.39;47.27;100407.06;8393753;28;20044;-72
2022/03/24 00:56:55;;;;;;;104.00;39.20;;;;;;;5.36;47.41;100402.19;8394409;28;20045;-72
2022/03/24 01:00:56;;;;;;;113.28;42.10;;;;;;;5.30;47.40;100397.81;8394543;28;20080;-71
2022/03/24 01:04:57;;;;;;;112.75;40.70;;;;;;;5.32;47.77;100401.06;8394571;28;20082;-72
2022/03/24 01:08:58;;;;;;;109.28;41.00;;;;;;;5.31;47.65;100399.44;8408379;28;20144;-72
2022/03/24 01:12:59;;;;;;;110.88;42.03;;;;;;;5.28;47.61;100399.94;8395884;28;20044;-72
2022/03/24 01:17:02;;;;;;;114.00;42.40;;;;;;;5.23;48.01;100391.81;8401225;28;20488;-72
2022/03/24 01:21:04;;;;;;;113.50;42.30;;;;;;;5.15;47.98;100397.56;8401441;28;20056;-72
2022/03/24 01:25:08;;;;;;;117.43;42.72;;;;;;;5.09;48.11;100406.53;8400568;28;20048;-72
2022/03/24 01:29:11;;;;;;;115.47;42.53;;;;;;;5.03;48.42;100405.66;8399165;28;20056;-71
2022/03/24 01:33:12;;;;;;;102.45;42.42;;;;;;;4.97;48.78;100405.81;8399500;28;20059;-71
2022/03/24 01:37:13;;;;;;;107.65;41.65;;;;;;;4.86;49.07;100406.69;8400313;28;20063;-71
2022/03/24 01:41:14;;;;;;;116.93;44.05;;;;;;;4.70;49.49;100404.75;8398476;28;20056;-72
2022/03/24 01:45:15;;;;;;;107.97;40.90;;;;;;;4.48;49.56;100400.06;8398784;28;20430;-71
2022/03/24 01:49:17;;;;;;;114.55;43.35;;;;;;;4.25;50.13;100406.28;8400236;28;20053;-71
2022/03/24 01:53:18;;;;;;;109.20;42.15;;;;;;;4.01;50.96;100398.53;8399722;28;20049;-72
2022/03/24 01:57:21;;;;;;;111.03;43.92;;;;;;;3.89;52.11;100395.06;8365972;28;20045;-71
2022/03/24 02:01:34;;;;;;;107.40;42.75;;;;;;;3.78;52.24;100399.34;8400141;28;20068;-72
2022/03/24 02:05:38;;;;;;;116.78;43.20;;;;;;;3.85;53.30;100397.38;8399630;28;20048;-72
2022/03/24 02:09:40;;;;;;;115.15;43.05;;;;;;;3.85;53.22;100404.59;8399636;28;20441;-72
2022/03/24 02:13:41;;;;;;;117.20;43.55;;;;;;;3.79;53.26;100407.16;8399577;28;20045;-71
2022/03/24 02:17:42;;;;;;;111.13;43.45;;;;;;;3.65;53.61;100400.38;8399577;28;20123;-71
2022/03/24 02:21:46;;;;;;;105.97;43.30;;;;;;;3.55;54.04;100405.50;8399227;28;20070;-71
2022/03/24 02:25:47;;;;;;;119.60;44.95;;;;;;;3.44;54.35;100406.28;8398510;28;20044;-71
2022/03/24 02:29:49;;;;;;;107.35;43.38;;;;;;;3.45;55.49;100399.91;8398970;28;20135;-71
2022/03/24 02:34:37;;;;;;;119.03;43.25;;;;;;;3.46;55.62;100401.53;8399092;28;20055;-71
2022/03/24 02:38:14;;;;;;;113.50;42.63;;;;;;;3.59;55.30;100401.34;8398415;28;20044;-71
2022/03/24 02:42:18;;;;;;;101.97;42.08;;;;;;;3.66;55.21;100401.19;8398285;28;20075;-71
2022/03/24 02:46:20;;;;;;;106.65;43.10;;;;;;;3.67;54.77;100398.31;8398914;28;20128;-71
2022/03/24 02:50:22;;;;;;;110.30;42.58;;;;;;;3.68;54.87;100399.94;8398164;28;20044;-71
2022/03/24 02:54:23;;;;;;;104.68;40.83;;;;;;;3.70;55.04;100403.16;8398184;28;20139;-71
2022/03/24 02:58:24;;;;;;;112.93;43.00;;;;;;;3.68;54.96;100399.94;8397430;28;20048;-71
2022/03/24 03:02:25;;;;;;;113.57;42.97;;;;;;;3.63;54.96;100397.16;8397686;28;20049;-71
2022/03/24 03:06:26;;;;;;;103.65;41.88;;;;;;;3.60;54.98;100408.28;8397788;28;20064;-71
2022/03/24 03:10:27;;;;;;;110.30;42.78;;;;;;;3.58;55.01;100407.72;8397249;28;20086;-71
2022/03/24 03:14:29;;;;;;;105.47;42.17;;;;;;;3.51;55.59;100409.66;8397488;28;20071;-71
2022/03/24 03:18:32;;;;;;;105.28;42.40;;;;;;;3.43;55.73;100407.34;8397312;28;20556;-72
2022/03/24 03:22:33;;;;;;;107.80;43.15;;;;;;;3.37;56.14;100408.28;8397012;28;20458;-72
2022/03/24 03:26:35;;;;;;;103.28;41.05;;;;;;;3.33;56.56;100413.25;8383640;28;20105;-71
2022/03/24 03:30:36;;;;;;;106.35;43.90;;;;;;;3.24;56.71;100424.47;8396586;28;20040;-72
2022/03/24 03:34:38;;;;;;;113.78;41.72;;;;;;;3.16;56.64;100414.16;8395934;28;20106;-72
2022/03/24 03:38:39;;;;;;;102.35;42.53;;;;;;;2.97;57.01;100414.19;8377570;28;20045;-71
2022/03/24 03:42:40;;;;;;;100.18;42.42;;;;;;;2.77;56.89;100408.31;8391081;28;20048;-71
2022/03/24 03:46:41;;;;;;;103.28;42.60;;;;;;;2.56;57.10;100416.81;8394810;28;20056;-72
2022/03/24 03:50:43;;;;;;;101.13;43.13;;;;;;;2.38;57.45;100408.84;8395778;28;20052;-71
2022/03/24 03:54:44;;;;;;;98.45;44.13;;;;;;;2.17;58.50;100422.63;8395479;28;20042;-71
2022/03/24 03:58:45;;;;;;;110.53;43.63;;;;;;;2.00;59.25;100423.19;8394413;28;20059;-71
2022/03/24 04:02:46;;;;;;;106.43;44.15;;;;;;;1.89;59.58;100415.94;8395654;28;20568;-71
2022/03/24 04:06:48;;;;;;;109.95;43.15;;;;;;;1.73;59.70;100421.81;8376872;28;20044;-71
2022/03/24 04:10:49;;;;;;;107.38;41.88;;;;;;;1.54;59.81;100425.44;8394032;28;20059;-71
2022/03/24 04:14:50;;;;;;;107.15;44.03;;;;;;;1.42;59.88;100429.88;8393544;28;20048;-71
2022/03/24 04:18:51;;;;;;;113.38;43.05;;;;;;;1.31;60.35;100434.03;8394636;28;20048;-71
2022/03/24 04:22:53;;;;;;;107.57;44.10;;;;;;;1.22;60.43;100436.13;8410046;28;20526;-71
2022/03/24 04:26:56;;;;;;;121.82;45.85;;;;;;;1.17;60.11;100443.94;8394936;28;20515;-71
2022/03/24 04:30:57;;;;;;;110.60;45.13;;;;;;;1.10;61.04;100448.53;8370715;28;20048;-71
2022/03/24 04:34:58;;;;;;;115.18;43.60;;;;;;;1.01;61.14;100449.78;8392655;28;20051;-71
2022/03/24 04:38:59;;;;;;;112.65;44.03;;;;;;;0.96;60.94;100457.59;8394145;28;20423;-71
2022/03/24 04:43:00;;;;;;;102.30;42.28;;;;;;;0.89;61.32;100446.19;8390757;28;20052;-71
2022/03/24 04:47:01;;;;;;;110.45;42.30;;;;;;;0.79;61.47;100461.78;8393172;28;20083;-71
2022/03/24 04:51:06;;;;;;;109.00;42.00;;;;;;;0.72;61.57;100455.66;8392724;28;20548;-71
2022/03/24 04:55:09;;;;;;;107.53;43.65;;;;;;;0.70;61.81;100455.06;8390071;28;20044;-71
2022/03/24 04:59:10;;;;;;;101.70;41.17;;;;;;;0.71;61.64;100459.34;8393069;28;20056;-71
2022/03/24 05:03:11;;;;;;;107.45;43.00;;;;;;;0.67;62.34;100452.84;8393795;28;20186;-71
2022/03/24 05:07:13;;;;;;;112.22;42.78;;;;;;;0.67;61.97;100458.16;8393399;28;20074;-71
2022/03/24 05:11:14;;;;;;;100.32;40.13;;;;;;;0.69;62.11;100456.09;8375676;28;20155;-71
2022/03/24 05:15:15;;;;;;;105.18;42.15;;;;;;;0.68;62.17;100454.47;8394446;28;20049;-72
2022/03/24 05:19:16;;;;;;;108.82;44.25;;;;;;;0.68;62.33;100459.78;8394628;28;20048;-71
2022/03/24 05:23:17;;;;;;;102.75;40.80;;;;;;;0.72;63.21;100461.00;8391489;28;20056;-71
2022/03/24 05:27:18;;;;;;;107.47;43.00;;;;;;;0.71;63.27;100464.66;8387124;28;20113;-73
2022/03/24 05:31:20;;;;;;;117.90;43.25;;;;;;;0.75;62.85;100465.88;8394515;28;20045;-72
2022/03/24 05:35:21;;;;;;;108.95;42.78;;;;;;;0.82;62.86;100459.50;8393400;28;20484;-71
2022/03/24 05:39:22;;;;;;;111.68;46.67;;;;;;;0.94;63.33;100470.31;8392393;28;20409;-72
2022/03/24 05:43:24;;;;;;;111.28;44.40;;;;;;;1.04;63.14;100470.66;8392810;28;20128;-71
2022/03/24 05:47:25;;;;;;;105.95;44.10;;;;;;;1.14;63.25;100476.31;8392441;28;20488;-72
2022/03/24 05:51:26;;;;;;;124.03;45.85;;;;;;;1.28;62.84;100472.53;8392312;28;20136;-72
2022/03/24 05:55:28;;;;;;;120.57;45.70;;;;;;;1.39;62.84;100478.19;8391091;28;20048;-72
2022/03/24 05:59:29;;;;;;;117.25;45.97;;;;;;;1.51;63.37;100476.47;8374500;28;20071;-72
2022/03/24 06:03:31;;;;;;;122.63;46.17;;;;;;;1.61;64.25;100482.13;8397483;28;20507;-72
2022/03/24 06:07:33;;;;;;;121.65;46.25;;;;;;;1.74;64.20;100482.06;8393630;28;20131;-72
2022/03/24 06:11:35;;;;;;;114.45;47.38;;;;;;;1.90;63.65;100476.19;8374622;28;20443;-72
2022/03/24 06:15:36;;;;;;;117.35;47.35;;;;;;;2.07;63.87;100482.56;8393838;28;20056;-72
2022/03/24 06:19:39;;;;;;;116.13;46.55;;;;;;;2.26;64.18;100477.25;8357042;28;20048;-72
2022/03/24 06:23:40;;;;;;;107.95;46.75;;;;;;;2.43;63.77;100486.31;8392785;28;20051;-72
2022/03/24 06:27:41;;;;;;;112.70;46.08;;;;;;;2.60;62.89;100482.00;8377655;28;20051;-72
2022/03/24 06:31:42;;;;;;;118.20;47.42;;;;;;;2.72;62.44;100490.88;8394955;28;20446;-72
2022/03/24 06:35:45;;;;;;;116.65;44.28;;;;;;;2.90;62.33;100488.22;8392847;28;20071;-72
2022/03/24 06:39:45;;;;;;;116.63;44.53;;;;;;;3.17;61.95;100498.53;8392815;28;20052;-72
2022/03/24 06:43:47;;;;;;;117.97;44.85;;;;;;;3.39;61.57;100496.97;8393866;28;20105;-72
2022/03/24 06:47:49;;;;;;;120.35;46.78;;;;;;;3.58;61.24;100498.53;8396188;28;20299;-72
2022/03/24 06:51:51;;;;;;;111.75;46.65;;;;;;;3.79;61.20;100498.00;8394722;28;20037;-72
2022/03/24 06:55:52;;;;;;;117.93;45.55;;;;;;;3.99;60.94;100504.88;8396498;28;20057;-72
2022/03/24 06:59:53;;;;;;;119.38;46.65;;;;;;;4.18;60.61;100506.38;8396471;28;20472;-72
2022/03/24 07:03:54;;;;;;;108.38;44.38;;;;;;;4.33;60.33;100504.06;8396258;28;20045;-72
2022/03/24 07:07:55;;;;;;;105.32;44.20;;;;;;;4.50;59.84;100499.59;8398159;28;20044;-72
2022/03/24 07:11:56;;;;;;;119.05;45.25;;;;;;;4.67;59.08;100505.88;8397960;28;20135;-72
2022/03/24 07:15:58;;;;;;;93.05;41.85;;;;;;;4.80;58.90;100512.00;8398107;28;20040;-72
2022/03/24 07:19:58;;;;;;;101.32;42.28;;;;;;;4.97;58.52;100515.59;8397375;28;20537;-72
2022/03/24 07:24:00;;;;;;;98.95;42.13;;;;;;;5.12;57.90;100518.56;8395128;28;20052;-72
2022/03/24 07:28:01;;;;;;;95.85;40.67;;;;;;;5.27;57.38;100513.47;8397240;28;20048;-72
2022/03/24 07:32:04;;;;;;;107.75;42.92;;;;;;;5.46;57.14;100517.56;8397050;28;20048;-72
2022/03/24 07:36:06;;;;;;;115.13;45.28;;;;;;;5.69;57.05;100518.50;8397003;28;20052;-72
2022/03/24 07:40:10;;;;;;;110.63;43.95;;;;;;;5.87;56.80;100523.66;8396793;28;20040;-72
2022/03/24 07:44:11;;;;;;;101.18;42.05;;;;;;;6.01;56.45;100516.94;8411397;28;20727;-72
2022/03/24 07:48:20;;;;;;;104.53;42.88;;;;;;;6.22;56.41;100518.88;8395398;28;20044;-72
2022/03/24 07:52:25;;;;;;;123.65;48.97;;;;;;;6.56;56.58;100519.59;8396547;28;20481;-72
2022/03/24 07:56:27;;;;;;;108.07;45.10;;;;;;;6.99;55.41;100516.13;8396040;28;20330;-72
2022/03/24 08:00:28;;;;;;;112.72;47.15;;;;;;;7.10;54.95;100515.19;8396304;28;20541;-72
2022/03/24 08:04:29;;;;;;;117.38;44.45;;;;;;;7.20;54.71;100515.28;8393522;28;20060;-72
2022/03/24 08:08:33;;;;;;;95.78;42.60;;;;;;;7.53;52.97;100525.06;8395940;28;20560;-72
2022/03/24 08:12:34;;;;;;;97.68;39.95;;;;;;;7.63;53.01;100518.97;8395919;28;20503;-72
2022/03/24 08:16:34;;;;;;;91.50;38.70;;;;;;;7.72;52.81;100528.16;8395833;28;20094;-73
2022/03/24 08:20:37;;;;;;;95.13;40.47;;;;;;;7.83;52.29;100523.69;8395493;28;20057;-72
2022/03/24 08:24:37;;;;;;;96.18;40.33;;;;;;;8.01;51.00;100521.44;8394474;28;20083;-72
2022/03/24 08:28:38;;;;;;;88.60;39.05;;;;;;;8.19;50.50;100522.94;8395508;28;20079;-72
2022/03/24 08:32:40;;;;;;;86.20;38.55;;;;;;;8.28;50.49;100525.94;8395215;28;20131;-72
2022/03/24 08:36:42;;;;;;;85.40;36.20;;;;;;;8.46;49.69;100533.59;8395362;28;20139;-72
2022/03/24 08:40:43;;;;;;;92.38;38.78;;;;;;;8.56;49.40;100531.00;8395314;28;20145;-72
2022/03/24 08:44:44;;;;;;;85.85;38.15;;;;;;;8.74;49.18;100530.56;8395058;28;20098;-72
2022/03/24 08:48:45;;;;;;;100.70;40.78;;;;;;;9.03;49.17;100530.16;8394098;28;20057;-72
2022/03/24 08:52:46;;;;;;;95.15;40.40;;;;;;;9.24;48.12;100529.16;8394948;28;20102;-72
2022/03/24 08:56:47;;;;;;;89.57;40.08;;;;;;;9.42;48.04;100531.34;8393106;28;20048;-73
2022/03/24 09:00:48;;;;;;;91.90;40.72;;;;;;;9.54;47.82;100529.22;8393139;28;20127;-73
2022/03/24 09:04:49;;;;;;;92.95;41.67;;;;;;;9.70;47.33;100538.13;8394914;28;20491;-72
2022/03/24 09:08:51;;;;;;;86.20;41.25;;;;;;;9.87;47.24;100540.59;8392761;28;20114;-73
2022/03/24 09:12:52;;;;;;;90.60;38.10;;;;;;;9.98;46.47;100544.91;8409205;28;20052;-72
2022/03/24 09:16:52;;;;;;;79.75;37.03;;;;;;;10.13;45.50;100542.19;8394254;28;20120;-72
2022/03/24 09:20:54;;;;;;;81.25;34.85;;;;;;;10.11;44.73;100538.94;8359135;28;20455;-72
2022/03/24 09:24:54;;;;;;;77.60;35.40;;;;;;;10.24;43.88;100538.44;8394671;28;20072;-72
2022/03/24 09:28:57;;;;;;;79.72;32.85;;;;;;;10.47;42.86;100537.84;8342428;28;20113;-72
2022/03/24 09:32:58;;;;;;;60.22;28.52;;;;;;;10.59;41.39;100541.09;8394646;28;20526;-72
2022/03/24 09:36:59;;;;;;;66.47;29.42;;;;;;;10.72;39.61;100545.13;8400716;28;20044;-72
2022/03/24 09:41:00;;;;;;;68.18;29.95;;;;;;;10.72;39.69;100536.19;8400651;28;20048;-72
2022/03/24 09:45:02;;;;;;;50.92;23.77;;;;;;;10.89;38.56;100544.81;8400587;28;20039;-72
2022/03/24 09:49:03;;;;;;;52.45;26.52;;;;;;;10.89;37.82;100544.81;8400488;28;20078;-72
2022/03/24 09:53:06;;;;;;;59.38;26.48;;;;;;;10.94;38.06;100547.47;8400010;28;20459;-73
2022/03/24 09:57:08;;;;;;;63.45;26.90;;;;;;;11.05;37.91;100543.63;8399106;28;20081;-72
2022/03/24 10:01:09;;;;;;;62.85;29.10;;;;;;;11.35;37.67;100538.09;8399593;28;20147;-72
2022/03/24 10:05:18;;;;;;;69.35;29.75;;;;;;;11.46;37.53;100548.84;8400029;28;20078;-72
2022/03/24 10:09:33;;;;;;;;;;;;;;;11.54;37.52;100545.53;8400348;28;20040;-72
2022/03/24 10:13:53;;;;;;;56.70;25.42;;;;;;;11.71;36.13;100540.56;8399605;28;19920;-72
2022/03/24 10:17:56;;;;;;;56.10;25.05;;;;;;;11.90;35.50;100538.84;8395584;28;20052;-72
2022/03/24 10:21:57;;;;;;;50.38;23.85;;;;;;;11.98;35.10;100540.94;8395510;28;20135;-72
2022/03/24 10:26:03;;;;;;;48.35;22.42;;;;;;;12.04;34.47;100534.41;8395438;28;20044;-72
2022/03/24 10:30:10;;;;;;;50.33;22.45;;;;;;;12.07;33.70;100533.81;8395139;28;20508;-73
2022/03/24 10:34:12;;;;;;;49.70;23.55;;;;;;;12.17;34.25;100532.94;8395181;28;20071;-72
2022/03/24 10:38:12;;;;;;;49.17;24.15;;;;;;;12.33;34.15;100541.72;8395026;28;20053;-72
2022/03/24 10:42:16;;;;;;;50.45;24.35;;;;;;;12.47;33.07;100531.84;8394991;28;20045;-72
2022/03/24 10:46:19;;;;;;;50.58;23.65;;;;;;;12.60;32.90;100531.16;8394338;28;20048;-71
2022/03/24 10:50:32;;;;;;;49.72;23.90;;;;;;;12.67;33.21;100526.22;8394678;28;20059;-72
2022/03/24 10:54:48;;;;;;;58.45;25.65;;;;;;;12.84;33.11;100521.16;8396377;28;20048;-73
2022/03/24 10:58:56;;;;;;;52.13;24.13;;;;;;;12.81;33.63;100515.47;8398428;28;20041;-73
2022/03/24 11:02:57;;;;;;;54.63;24.80;;;;;;;12.85;33.64;100511.88;8398094;28;20056;-73
2022/03/24 11:06:58;;;;;;;52.03;24.17;;;;;;;13.03;33.75;100508.41;8398044;28;20060;-73
2022/03/24 11:10:58;;;;;;;51.85;22.02;;;;;;;13.07;33.07;100517.59;8397864;28;20389;-72
2022/03/24 11:15:03;;;;;;;49.92;22.73;;;;;;;13.19;33.06;100516.38;8395491;28;20044;-73
2022/03/24 11:19:13;;;;;;;56.75;25.08;;;;;;;13.29;33.22;100505.41;8397328;28;20060;-72
2022/03/24 11:23:34;;;;;;;56.30;23.13;;;;;;;13.56;33.28;100510.16;8395130;28;20499;-72
2022/03/24 11:27:37;;;;;;;52.45;24.17;;;;;;;13.80;32.92;100500.81;8396148;28;20076;-72
2022/03/24 11:31:44;;;;;;;48.13;22.60;;;;;;;13.60;32.54;100495.72;8395237;28;20597;-72
2022/03/24 11:35:45;;;;;;;63.78;22.08;;;;;;;13.77;31.96;100493.28;8397239;28;20503;-72
2022/03/24 11:40:11;;;;;;;46.28;20.70;;;;;;;13.88;30.66;100497.44;8397262;28;20040;-72
2022/03/24 11:44:45;;;;;;;47.67;21.60;;;;;;;14.02;31.71;100492.03;8397376;28;20487;-71
2022/03/24 11:48:46;;;;;;;49.83;21.20;;;;;;;14.25;31.04;100495.72;8327326;28;20160;-72
2022/03/24 11:52:48;;;;;;;45.78;20.40;;;;;;;14.33;30.12;100492.31;8326480;28;20069;-72
2022/03/24 11:56:49;;;;;;;42.67;19.38;;;;;;;14.52;29.21;100484.94;8325522;28;20535;-72
2022/03/24 12:00:50;;;;;;;42.70;19.23;;;;;;;14.66;29.56;100491.16;8325173;28;20120;-72
2022/03/24 12:04:58;;;;;;;43.45;18.90;;;;;;;14.64;28.51;100487.97;8323073;28;20045;-72
2022/03/24 12:09:04;;;;;;;47.00;18.15;;;;;;;14.75;28.73;100467.59;8323823;28;20145;-72
2022/03/24 12:13:21;;;;;;;33.60;15.95;;;;;;;14.95;28.47;100471.00;8324940;28;20080;-71
2022/03/24 12:17:30;;;;;;;39.92;18.02;;;;;;;15.16;26.67;100466.75;8325790;28;20056;-71
2022/03/24 12:21:32;;;;;;;37.08;17.75;;;;;;;15.16;27.24;100461.31;8325805;28;20192;-72
2022/03/24 12:25:35;;;;;;;34.75;16.05;;;;;;;15.25;26.83;100464.09;8376530;28;20056;-72
2022/03/24 12:29:36;;;;;;;32.55;15.95;;;;;;;15.25;26.02;100458.66;8376742;28;20056;-72
2022/03/24 12:33:49;;;;;;;35.70;16.98;;;;;;;15.37;26.19;100457.00;8393385;28;20095;-73
2022/03/24 12:37:51;;;;;;;32.13;15.13;;;;;;;15.46;26.48;100460.59;8377726;28;20131;-72
2022/03/24 12:42:06;;;;;;;35.10;16.00;;;;;;;15.31;26.12;100447.34;8395586;28;20408;-72
2022/03/24 12:46:20;;;;;;;36.08;15.10;;;;;;;15.42;25.83;100454.16;8395556;28;20053;-72
2022/03/24 12:50:21;;;;;;;31.73;14.20;;;;;;;15.62;25.88;100453.72;8395049;28;20063;-72
2022/03/24 12:54:23;;;;;;;30.73;12.60;;;;;;;15.69;25.11;100452.47;8395288;28;20491;-72
2022/03/24 12:58:24;;;;;;;35.58;16.55;;;;;;;15.82;24.73;100451.59;8359649;28;20500;-72
2022/03/24 13:02:26;;;;;;;30.10;15.20;;;;;;;15.91;25.20;100447.03;8395081;28;20067;-72
2022/03/24 13:06:27;;;;;;;29.15;14.52;;;;;;;15.88;23.79;100434.00;8394721;28;20137;-72
2022/03/24 13:10:34;;;;;;;28.92;13.82;;;;;;;15.69;24.24;100441.59;8401170;28;20073;-72
2022/03/24 13:14:47;;;;;;;30.35;14.68;;;;;;;15.92;24.40;100434.97;8401755;28;20044;-72
2022/03/24 13:18:57;;;;;;;29.95;14.02;;;;;;;15.85;23.69;100431.91;8401465;28;20064;-73
2022/03/24 13:23:03;;;;;;;30.65;15.07;;;;;;;15.99;24.99;100428.00;8401307;28;20195;-73
2022/03/24 13:27:04;;;;;;;33.08;13.52;;;;;;;16.57;23.35;100423.41;8401821;28;20094;-72
2022/03/24 13:31:05;;;;;;;36.35;14.80;;;;;;;17.49;23.11;100425.00;8401079;28;20054;-72
2022/03/24 13:35:12;;;;;;;31.73;15.25;;;;;;;18.22;22.32;100417.63;8398661;28;20442;-72
2022/03/24 13:39:12;;;;;;;30.42;15.65;;;;;;;18.52;22.05;100422.00;8400642;28;20247;-72
2022/03/24 13:43:14;;;;;;;32.92;15.20;;;;;;;19.69;21.86;100416.34;8400712;28;20597;-72
2022/03/24 13:47:17;;;;;;;31.35;14.95;;;;;;;20.17;20.25;100406.63;8400405;28;20052;-72
2022/03/24 13:51:19;;;;;;;28.58;15.45;;;;;;;20.56;20.38;100400.50;8400091;28;20135;-72
2022/03/24 13:55:22;;;;;;;34.17;15.98;;;;;;;21.56;20.02;100400.75;8398055;28;20052;-72
2022/03/24 13:59:28;;;;;;;36.95;18.73;;;;;;;22.23;19.41;100400.59;8399212;28;20049;-73
2022/03/24 14:03:29;;;;;;;30.77;17.13;;;;;;;22.92;19.50;100399.09;8399992;28;20163;-73
2022/03/24 14:07:30;;;;;;;32.72;17.27;;;;;;;23.92;18.08;100397.19;8399424;28;20052;-73
2022/03/24 14:11:31;;;;;;;31.88;17.67;;;;;;;24.07;17.45;100397.44;8397840;28;20055;-72
2022/03/24 14:15:32;;;;;;;29.08;15.10;;;;;;;23.53;17.25;100390.13;8399531;28;20442;-73
2022/03/24 14:19:34;;;;;;;27.58;14.90;;;;;;;23.63;16.81;100389.56;8398660;28;20037;-72
2022/03/24 14:23:36;;;;;;;24.30;14.75;;;;;;;23.54;16.90;100381.50;8399159;28;20140;-73
2022/03/24 14:27:47;;;;;;;28.25;14.73;;;;;;;23.82;16.83;100370.22;8397342;28;20120;-73
2022/03/24 14:32:07;;;;;;;27.83;15.98;;;;;;;24.22;17.04;100377.22;8399165;28;20045;-73
2022/03/24 14:36:08;;;;;;;29.13;16.23;;;;;;;24.10;16.53;100374.63;8399166;28;20040;-73
2022/03/24 14:40:15;;;;;;;32.90;17.92;;;;;;;23.46;17.28;100365.19;8398898;28;20056;-72
2022/03/24 14:44:20;;;;;;;29.65;17.20;;;;;;;23.87;16.70;100367.16;8398740;28;20052;-73
2022/03/24 14:48:22;;;;;;;29.67;16.05;;;;;;;24.33;15.53;100372.66;8398580;28;20049;-72
2022/03/24 14:52:23;;;;;;;27.55;17.65;;;;;;;24.26;16.43;100364.28;8398554;28;20079;-72
2022/03/24 14:56:27;;;;;;;29.75;15.82;;;;;;;23.83;16.48;100365.50;8398341;28;20401;-72
2022/03/24 15:00:28;;;;;;;33.33;17.65;;;;;;;24.40;16.32;100358.97;8398596;28;20052;-73
2022/03/24 15:04:29;;;;;;;26.33;15.70;;;;;;;24.82;15.76;100356.84;8397783;28;20052;-73
2022/03/24 15:08:30;;;;;;;46.22;16.25;;;;;;;25.15;15.54;100355.31;8395468;28;20086;-73
2022/03/24 15:12:32;;;;;;;30.10;15.85;;;;;;;24.06;16.64;100355.22;8397557;28;20040;-73
2022/03/24 15:16:33;;;;;;;25.92;16.30;;;;;;;23.75;16.09;100353.53;8397802;28;20067;-73
2022/03/24 15:20:34;;;;;;;32.95;15.82;;;;;;;23.99;16.10;100358.69;8397566;28;20051;-72
2022/03/24 15:24:37;;;;;;;27.58;15.93;;;;;;;23.81;15.69;100345.75;8395188;28;20496;-73
2022/03/24 15:28:38;;;;;;;29.40;15.93;;;;;;;21.97;16.56;100353.56;8397105;28;20093;-72
2022/03/24 15:32:40;;;;;;;24.02;14.65;;;;;;;21.01;17.30;100350.09;8396071;28;20041;-73
2022/03/24 15:36:41;;;;;;;26.40;14.73;;;;;;;21.73;16.88;100353.69;8396683;28;20488;-72
2022/03/24 15:40:42;;;;;;;25.75;14.10;;;;;;;21.38;16.64;100348.03;8411575;28;20045;-72
2022/03/24 15:44:43;;;;;;;22.25;13.95;;;;;;;19.83;17.97;100349.47;8396645;28;20071;-72
2022/03/24 15:48:44;;;;;;;25.55;14.30;;;;;;;18.80;19.03;100346.53;8396712;28;20080;-72
2022/03/24 15:52:47;;;;;;;27.85;13.93;;;;;;;18.12;19.32;100353.97;8394120;28;20063;-73
2022/03/24 15:56:48;;;;;;;27.13;14.65;;;;;;;17.72;19.90;100360.88;8394222;28;20052;-72
2022/03/24 16:00:49;;;;;;;25.77;14.52;;;;;;;18.02;19.59;100354.34;8395523;28;20407;-72
2022/03/24 16:04:50;;;;;;;28.35;14.18;;;;;;;17.40;19.91;100358.66;8396076;28;20056;-72
2022/03/24 16:08:52;;;;;;;26.73;14.95;;;;;;;16.70;20.50;100346.16;8395697;28;20087;-72
2022/03/24 16:12:52;;;;;;;27.90;15.20;;;;;;;16.28;21.42;100351.19;8395744;28;20051;-72
2022/03/24 16:16:54;;;;;;;27.52;14.70;;;;;;;15.93;21.33;100346.69;8393395;28;20511;-72
2022/03/24 16:20:55;;;;;;;31.55;16.00;;;;;;;15.60;21.84;100352.44;8369711;28;20043;-72
2022/03/24 16:24:56;;;;;;;30.42;15.32;;;;;;;15.37;22.45;100353.56;8372422;28;20041;-72
2022/03/24 16:28:57;;;;;;;31.15;16.27;;;;;;;14.98;23.05;100361.59;8393731;28;20076;-72
2022/03/24 16:32:59;;;;;;;30.77;16.00;;;;;;;14.71;23.89;100363.25;8380190;28;20434;-72
2022/03/24 16:37:01;;;;;;;29.73;15.68;;;;;;;14.45;24.47;100343.16;8396901;28;20381;-72
2022/03/24 16:41:02;;;;;;;29.95;15.52;;;;;;;14.07;24.99;100355.31;8373206;28;20053;-73
2022/03/24 16:45:03;;;;;;;29.05;15.07;;;;;;;13.83;25.71;100369.91;8394164;28;20064;-72
2022/03/24 16:49:05;;;;;;;31.38;15.73;;;;;;;13.62;26.22;100367.84;8374741;28;20040;-72
2022/03/24 16:53:06;;;;;;;30.45;15.52;;;;;;;13.32;26.54;100369.19;8363007;28;20057;-72
2022/03/24 16:57:07;;;;;;;32.08;14.45;;;;;;;13.04;27.25;100369.03;8362590;28;20053;-72
2022/03/24 17:01:08;;;;;;;36.10;15.80;;;;;;;12.77;27.74;100363.44;8384981;28;20113;-71
2022/03/24 17:05:12;;;;;;;27.30;14.95;;;;;;;12.45;28.18;100371.47;8392366;28;20052;-72
2022/03/24 17:09:13;;;;;;;28.15;15.77;;;;;;;12.18;28.61;100372.88;8409447;28;20055;-72
2022/03/24 17:13:14;;;;;;;35.05;15.68;;;;;;;11.93;30.13;100375.84;8394837;28;20131;-72
2022/03/24 17:17:15;;;;;;;30.75;16.58;;;;;;;11.66;30.78;100380.97;8394402;28;20577;-72
2022/03/24 17:21:16;;;;;;;28.95;15.15;;;;;;;11.30;31.64;100383.97;8409172;28;20045;-72
2022/03/24 17:25:18;;;;;;;36.47;16.42;;;;;;;10.88;32.51;100386.41;8340371;28;20207;-72
2022/03/24 17:29:19;;;;;;;43.90;18.02;;;;;;;10.56;33.32;100379.56;8369207;28;20075;-72
2022/03/24 17:33:20;;;;;;;43.92;21.33;;;;;;;10.29;33.90;100379.13;8389677;28;20048;-72
2022/03/24 17:37:21;;;;;;;40.47;17.95;;;;;;;10.05;34.25;100383.47;8392764;28;20139;-71
2022/03/24 17:41:22;;;;;;;43.72;17.95;;;;;;;9.78;35.16;100383.03;8380815;28;20427;-72
2022/03/24 17:45:25;;;;;;;47.92;18.08;;;;;;;9.52;35.66;100384.91;8393480;28;20548;-71
2022/03/24 17:49:26;;;;;;;53.88;22.25;;;;;;;9.31;36.29;100389.50;8393231;28;20553;-72
2022/03/24 17:53:27;;;;;;;67.95;31.40;;;;;;;9.11;36.47;100400.25;8392587;28;20144;-72
2022/03/24 17:57:28;;;;;;;55.00;27.83;;;;;;;8.95;36.70;100395.94;8398355;28;20461;-72
2022/03/24 18:01:29;;;;;;;48.28;24.73;;;;;;;8.70;37.53;100388.59;8409232;28;20061;-72
2022/03/24 18:05:31;;;;;;;47.38;23.50;;;;;;;8.50;37.48;100392.03;8385997;28;20048;-72
2022/03/24 18:09:32;;;;;;;46.17;22.10;;;;;;;8.37;37.92;100398.72;8350686;28;20041;-71
2022/03/24 18:13:32;;;;;;;43.40;22.13;;;;;;;8.18;38.23;100391.31;8399025;28;20055;-72
2022/03/24 18:17:36;;;;;;;48.78;21.80;;;;;;;8.00;38.73;100389.88;8397061;28;20127;-71
2022/03/24 18:21:37;;;;;;;35.00;18.65;;;;;;;7.82;38.97;100399.19;8398535;28;20063;-72